Time;durP1;ratioP1;P1;durP2;ratioP2;P2;SDS_P1;SDS_P2;PMS_P1;PMS_P2;Temp;Humidity;BMP_temperature;BMP_pressure;BME280_temperature;BME280_humidity;BME280_pressure;Samples;Min_cycle;Max_cycle;Signal;HPM_P1;HPM_P2
2022/08/01 00:02:24;;;;;;;4.20;3.63;;;;;;;;;;5094382;28;20986;-71
2022/08/01 00:04:51;;;;;;;3.40;3.13;;;;;;;;;;5094308;28;20430;-71
2022/08/01 00:07:18;;;;;;;5.73;3.80;;;;;;;;;;5094288;28;20483;-71
2022/08/01 00:09:45;;;;;;;7.63;4.10;;;;;;;;;;5094076;28;20442;-71
2022/08/01 00:12:12;;;;;;;5.87;4.80;;;;;;;;;;5093917;28;20475;-71
2022/08/01 00:14:39;;;;;;;4.00;3.60;;;;;;;;;;5094161;28;20827;-71
2022/08/01 00:17:06;;;;;;;3.63;3.17;;;;;;;;;;5094259;28;20453;-71
2022/08/01 00:19:35;;;;;;;3.87;3.57;;;;;;;;;;5094271;28;20884;-71
2022/08/01 00:22:02;;;;;;;3.80;3.40;;;;;;;;;;5093814;28;20473;-71
2022/08/01 00:24:29;;;;;;;4.10;3.80;;;;;;;;;;5093587;28;20946;-71
2022/08/01 00:26:56;;;;;;;5.43;4.00;;;;;;;;;;5093552;28;21017;-71
2022/08/01 00:29:23;;;;;;;6.53;3.67;;;;;;;;;;5093940;28;20443;-71
2022/08/01 00:31:51;;;;;;;3.73;3.43;;;;;;;;;;5093842;28;20457;-71
2022/08/01 00:34:18;;;;;;;4.43;3.30;;;;;;;;;;5093876;28;20453;-71
2022/08/01 00:36:47;;;;;;;6.03;3.33;;;;;;;;;;5093566;28;20450;-71
2022/08/01 00:39:14;;;;;;;4.10;3.70;;;;;;;;;;5093548;28;20472;-71
2022/08/01 00:41:41;;;;;;;5.40;3.23;;;;;;;;;;5093817;28;20431;-71
2022/08/01 00:44:08;;;;;;;5.50;4.70;;;;;;;;;;5093523;28;20466;-71
2022/08/01 00:46:35;;;;;;;3.80;3.43;;;;;;;;;;5093854;28;20482;-71
2022/08/01 00:49:03;;;;;;;4.10;3.70;;;;;;;;;;5093716;28;20439;-71
2022/08/01 00:51:30;;;;;;;4.17;3.77;;;;;;;;;;5093568;28;20451;-71
2022/08/01 00:53:59;;;;;;;4.93;3.40;;;;;;;;;;5093338;28;20470;-71
2022/08/01 00:56:27;;;;;;;5.93;3.67;;;;;;;;;;5093760;28;20446;-71
2022/08/01 00:58:54;;;;;;;6.20;3.67;;;;;;;;;;5093316;28;20451;-71
2022/08/01 01:01:21;;;;;;;3.20;2.90;;;;;;;;;;5093572;28;20798;-71
2022/08/01 01:03:48;;;;;;;4.00;2.80;;;;;;;;;;5093100;28;20466;-71
2022/08/01 01:06:25;;;;;;;4.77;3.27;;;;;;;;;;5093459;28;20451;-71
2022/08/01 01:08:55;;;;;;;3.80;3.40;;;;;;;;;;5093627;28;20442;-71
2022/08/01 01:11:30;;;;;;;4.30;3.90;;;;;;;;;;5093086;28;20462;-71
2022/08/01 01:14:01;;;;;;;4.83;4.07;;;;;;;;;;5092965;28;20474;-71
2022/08/01 01:16:32;;;;;;;4.23;3.67;;;;;;;;;;5093376;28;20454;-71
2022/08/01 01:19:02;;;;;;;8.23;3.97;;;;;;;;;;5093054;28;20457;-71
2022/08/01 01:21:36;;;;;;;5.37;3.80;;;;;;;;;;5093284;28;20427;-71
2022/08/01 01:24:09;;;;;;;4.73;3.80;;;;;;;;;;5092748;28;21227;-71
2022/08/01 01:26:40;;;;;;;3.87;3.47;;;;;;;;;;5093006;28;20490;-71
2022/08/01 01:29:15;;;;;;;4.27;3.87;;;;;;;;;;5092917;28;20450;-71
2022/08/01 01:31:44;;;;;;;6.50;3.60;;;;;;;;;;5092871;28;20477;-71
2022/08/01 01:34:14;;;;;;;4.17;3.87;;;;;;;;;;5092462;28;20456;-71
2022/08/01 01:36:41;;;;;;;5.40;4.33;;;;;;;;;;5093935;28;20511;-71
2022/08/01 01:39:08;;;;;;;4.00;3.70;;;;;;;;;;5096445;28;20939;-71
2022/08/01 01:41:38;;;;;;;4.70;4.00;;;;;;;;;;5096921;28;20462;-71
2022/08/01 01:44:06;;;;;;;4.80;4.23;;;;;;;;;;5096605;28;20484;-71
2022/08/01 01:46:34;;;;;;;4.47;3.70;;;;;;;;;;5096577;28;20510;-71
2022/08/01 01:49:03;;;;;;;5.00;4.50;;;;;;;;;;5096517;28;20446;-71
2022/08/01 01:51:31;;;;;;;4.43;4.13;;;;;;;;;;5096413;28;20488;-71
2022/08/01 01:53:59;;;;;;;4.13;3.70;;;;;;;;;;5096200;28;20471;-71
2022/08/01 01:56:26;;;;;;;4.10;3.80;;;;;;;;;;5096411;28;20450;-71
2022/08/01 01:58:55;;;;;;;4.10;3.80;;;;;;;;;;5096598;28;20457;-71
2022/08/01 02:01:23;;;;;;;5.33;4.80;;;;;;;;;;5096387;28;20446;-71
2022/08/01 02:03:53;;;;;;;4.77;3.80;;;;;;;;;;5096130;28;20474;-71
2022/08/01 02:06:21;;;;;;;5.23;4.20;;;;;;;;;;5096218;28;20544;-71
2022/08/01 02:08:49;;;;;;;5.10;4.27;;;;;;;;;;5096493;28;20817;-71
2022/08/01 02:11:19;;;;;;;4.27;3.97;;;;;;;;;;5096346;28;20813;-71
2022/08/01 02:13:48;;;;;;;5.83;5.20;;;;;;;;;;5096094;28;20474;-71
2022/08/01 02:16:16;;;;;;;4.80;3.40;;;;;;;;;;5096288;28;20466;-71
2022/08/01 02:18:43;;;;;;;4.70;4.20;;;;;;;;;;5096272;28;20814;-71
2022/08/01 02:21:15;;;;;;;4.10;3.80;;;;;;;;;;5096218;28;20457;-71
2022/08/01 02:23:43;;;;;;;5.67;4.20;;;;;;;;;;5095915;28;20470;-71
2022/08/01 02:26:13;;;;;;;5.50;4.57;;;;;;;;;;5096120;28;20438;-71
2022/08/01 02:28:43;;;;;;;4.70;4.10;;;;;;;;;;5095870;28;20518;-71
2022/08/01 02:31:14;;;;;;;4.57;4.17;;;;;;;;;;5095981;28;20451;-71
2022/08/01 02:33:42;;;;;;;3.83;3.53;;;;;;;;;;5095792;28;20483;-71
2022/08/01 02:36:09;;;;;;;4.97;4.57;;;;;;;;;;5095957;28;20443;-71
2022/08/01 02:38:42;;;;;;;4.37;3.97;;;;;;;;;;5095920;28;20457;-71
2022/08/01 02:41:10;;;;;;;4.67;4.20;;;;;;;;;;5095255;28;20476;-71
2022/08/01 02:43:39;;;;;;;5.90;4.57;;;;;;;;;;5095615;28;20483;-71
2022/08/01 02:46:07;;;;;;;4.07;3.77;;;;;;;;;;5095424;28;20931;-71
2022/08/01 02:48:38;;;;;;;10.73;4.60;;;;;;;;;;5094670;28;21003;-71
2022/08/01 02:51:06;;;;;;;4.50;4.10;;;;;;;;;;5095716;28;20951;-71
2022/08/01 02:53:36;;;;;;;4.43;4.03;;;;;;;;;;5095068;28;21007;-71
2022/08/01 02:56:06;;;;;;;4.37;3.97;;;;;;;;;;5095418;28;20497;-71
2022/08/01 02:58:33;;;;;;;5.20;4.00;;;;;;;;;;5095257;28;20552;-71
2022/08/01 03:01:00;;;;;;;4.70;3.83;;;;;;;;;;5095443;28;20963;-71
2022/08/01 03:03:27;;;;;;;5.70;3.77;;;;;;;;;;5095127;28;20493;-71
2022/08/01 03:05:54;;;;;;;4.83;4.33;;;;;;;;;;5095270;28;20446;-71
2022/08/01 03:08:22;;;;;;;4.57;4.17;;;;;;;;;;5095251;28;20490;-71
2022/08/01 03:10:50;;;;;;;10.10;4.40;;;;;;;;;;5095180;28;20450;-71
2022/08/01 03:13:19;;;;;;;4.57;3.87;;;;;;;;;;5094982;28;20477;-71
2022/08/01 03:15:47;;;;;;;5.90;4.20;;;;;;;;;;5095023;28;20451;-71
2022/08/01 03:18:15;;;;;;;5.90;4.30;;;;;;;;;;5095053;28;20442;-71
2022/08/01 03:20:43;;;;;;;5.83;5.43;;;;;;;;;;5095033;28;20520;-71
2022/08/01 03:23:12;;;;;;;5.50;4.20;;;;;;;;;;5094836;28;20471;-71
2022/08/01 03:25:41;;;;;;;6.07;3.83;;;;;;;;;;5094782;28;20450;-71
2022/08/01 03:28:09;;;;;;;5.03;4.40;;;;;;;;;;5094983;28;20479;-71
2022/08/01 03:30:40;;;;;;;4.30;3.90;;;;;;;;;;5094831;28;20459;-71
2022/08/01 03:33:07;;;;;;;4.77;4.37;;;;;;;;;;5094540;28;20490;-71
2022/08/01 03:35:35;;;;;;;5.00;4.03;;;;;;;;;;5094761;28;20453;-71
2022/08/01 03:38:04;;;;;;;5.37;4.90;;;;;;;;;;5094540;28;20458;-71
2022/08/01 03:40:33;;;;;;;6.30;4.03;;;;;;;;;;5094216;28;20459;-71
2022/08/01 03:43:02;;;;;;;5.10;4.43;;;;;;;;;;5094535;28;20478;-71
2022/08/01 03:45:32;;;;;;;4.77;4.37;;;;;;;;;;5094207;28;20455;-71
2022/08/01 03:48:01;;;;;;;6.53;4.30;;;;;;;;;;5094305;28;20500;-71
2022/08/01 03:50:30;;;;;;;8.87;5.47;;;;;;;;;;5094469;28;20450;-71
2022/08/01 03:53:00;;;;;;;7.63;5.77;;;;;;;;;;5094340;28;20477;-71
2022/08/01 03:55:28;;;;;;;7.13;4.90;;;;;;;;;;5093978;28;20447;-71
2022/08/01 03:57:55;;;;;;;9.93;5.33;;;;;;;;;;5094283;28;20940;-71
2022/08/01 04:00:22;;;;;;;8.10;5.70;;;;;;;;;;5093952;28;20473;-71
2022/08/01 04:02:50;;;;;;;9.73;5.40;;;;;;;;;;5094198;28;20991;-71
2022/08/01 04:05:18;;;;;;;6.80;5.80;;;;;;;;;;5093863;28;20453;-71
2022/08/01 04:07:47;;;;;;;6.97;4.20;;;;;;;;;;5094017;28;21017;-71
2022/08/01 04:10:14;;;;;;;7.60;4.30;;;;;;;;;;5094051;28;20453;-71
2022/08/01 04:12:42;;;;;;;4.90;4.30;;;;;;;;;;5093886;28;20971;-71
2022/08/01 04:15:10;;;;;;;6.20;4.20;;;;;;;;;;5093630;28;20484;-71
2022/08/01 04:17:37;;;;;;;6.63;4.10;;;;;;;;;;5094012;28;20450;-71
2022/08/01 04:20:04;;;;;;;6.13;4.60;;;;;;;;;;5093886;28;20445;-71
2022/08/01 04:22:32;;;;;;;8.23;4.20;;;;;;;;;;5093815;28;20968;-72
2022/08/01 04:25:01;;;;;;;3.87;3.53;;;;;;;;;;5093591;28;20447;-72
2022/08/01 04:27:31;;;;;;;3.60;3.30;;;;;;;;;;5093620;28;20533;-72
2022/08/01 04:29:59;;;;;;;4.10;3.70;;;;;;;;;;5093903;28;20455;-71
2022/08/01 04:32:27;;;;;;;3.30;3.00;;;;;;;;;;5093673;28;20510;-71
2022/08/01 04:34:55;;;;;;;4.00;3.60;;;;;;;;;;5093361;28;20442;-71
2022/08/01 04:37:25;;;;;;;5.60;3.80;;;;;;;;;;5093497;28;20550;-71
2022/08/01 04:39:54;;;;;;;4.00;3.60;;;;;;;;;;5093209;28;20833;-71
2022/08/01 04:42:21;;;;;;;6.33;4.80;;;;;;;;;;5093323;28;20467;-71
2022/08/01 04:44:48;;;;;;;5.10;3.20;;;;;;;;;;5093278;28;20457;-71
2022/08/01 04:47:15;;;;;;;4.83;3.90;;;;;;;;;;5093376;28;20821;-71
2022/08/01 04:49:43;;;;;;;4.50;4.07;;;;;;;;;;5093389;28;20462;-71
2022/08/01 04:52:10;;;;;;;7.53;3.57;;;;;;;;;;5093297;28;20478;-71
2022/08/01 04:54:37;;;;;;;4.23;3.90;;;;;;;;;;5093037;28;20462;-71
2022/08/01 04:57:06;;;;;;;7.40;4.13;;;;;;;;;;5093027;28;20988;-71
2022/08/01 04:59:40;;;;;;;4.97;4.10;;;;;;;;;;5091975;28;20916;-71
2022/08/01 05:02:07;;;;;;;3.60;3.30;;;;;;;;;;5092313;28;20489;-71
2022/08/01 05:04:34;;;;;;;5.60;3.77;;;;;;;;;;5092837;28;20816;-71
2022/08/01 05:07:01;;;;;;;6.70;3.80;;;;;;;;;;5093017;28;20473;-71
2022/08/01 05:09:28;;;;;;;4.33;3.93;;;;;;;;;;5092811;28;20490;-71
2022/08/01 05:11:58;;;;;;;4.27;3.87;;;;;;;;;;5092473;28;20454;-71
2022/08/01 05:14:26;;;;;;;4.47;3.57;;;;;;;;;;5092598;28;20455;-72
2022/08/01 05:16:53;;;;;;;3.67;3.37;;;;;;;;;;5092935;28;20451;-72
2022/08/01 05:19:21;;;;;;;3.93;3.50;;;;;;;;;;5092764;28;20477;-72
2022/08/01 05:21:48;;;;;;;5.70;4.00;;;;;;;;;;5092948;28;20950;-71
2022/08/01 05:24:15;;;;;;;3.67;3.33;;;;;;;;;;5092589;28;20861;-72
2022/08/01 05:26:42;;;;;;;4.80;4.00;;;;;;;;;;5092948;28;20450;-72
2022/08/01 05:29:09;;;;;;;4.13;3.70;;;;;;;;;;5092826;28;20494;-72
2022/08/01 05:31:38;;;;;;;5.70;3.23;;;;;;;;;;5092734;28;20447;-71
2022/08/01 05:34:05;;;;;;;4.30;3.90;;;;;;;;;;5092632;28;20455;-72
2022/08/01 05:36:32;;;;;;;5.00;4.20;;;;;;;;;;5092786;28;20442;-72
2022/08/01 05:38:59;;;;;;;4.20;2.83;;;;;;;;;;5092837;28;20814;-71
2022/08/01 05:41:26;;;;;;;4.17;3.40;;;;;;;;;;5092192;28;20450;-72
2022/08/01 05:43:54;;;;;;;7.23;3.40;;;;;;;;;;5092545;28;20489;-72
2022/08/01 05:46:21;;;;;;;4.07;3.73;;;;;;;;;;5092486;28;20447;-72
2022/08/01 05:48:49;;;;;;;3.87;3.33;;;;;;;;;;5092546;28;20489;-72
2022/08/01 05:51:17;;;;;;;4.20;3.60;;;;;;;;;;5092344;28;20458;-72
2022/08/01 05:53:44;;;;;;;4.33;2.90;;;;;;;;;;5092573;28;20967;-72
2022/08/01 05:56:11;;;;;;;4.40;2.50;;;;;;;;;;5092523;28;20847;-72
2022/08/01 05:58:38;;;;;;;4.73;2.90;;;;;;;;;;5092703;28;20442;-72
2022/08/01 06:01:05;;;;;;;3.63;2.80;;;;;;;;;;5092495;28;20447;-72
2022/08/01 06:03:33;;;;;;;2.83;2.43;;;;;;;;;;5092242;28;20478;-72
2022/08/01 06:06:01;;;;;;;5.83;2.80;;;;;;;;;;5091619;28;20475;-72
2022/08/01 06:08:28;;;;;;;3.27;2.97;;;;;;;;;;5092264;28;20855;-71
2022/08/01 06:10:55;;;;;;;2.90;2.60;;;;;;;;;;5092819;28;20457;-72
2022/08/01 06:13:23;;;;;;;2.77;2.57;;;;;;;;;;5092265;28;20983;-72
2022/08/01 06:15:50;;;;;;;3.00;2.73;;;;;;;;;;5092471;28;20451;-72
2022/08/01 06:18:17;;;;;;;3.23;2.93;;;;;;;;;;5092364;28;20458;-72
2022/08/01 06:20:45;;;;;;;3.60;3.30;;;;;;;;;;5092439;28;20443;-72
2022/08/01 06:23:15;;;;;;;4.00;2.70;;;;;;;;;;5092623;28;20471;-72
2022/08/01 06:25:42;;;;;;;3.00;2.43;;;;;;;;;;5095933;28;20465;-72
2022/08/01 06:28:09;;;;;;;9.93;2.67;;;;;;;;;;5095897;28;20479;-72
2022/08/01 06:30:36;;;;;;;4.17;2.83;;;;;;;;;;5095840;28;20446;-72
2022/08/01 06:33:04;;;;;;;3.63;2.40;;;;;;;;;;5095819;28;20963;-72
2022/08/01 06:35:31;;;;;;;2.67;2.47;;;;;;;;;;5095590;28;20819;-72
2022/08/01 06:37:59;;;;;;;2.43;2.10;;;;;;;;;;5095952;28;20446;-72
2022/08/01 06:40:27;;;;;;;3.50;2.07;;;;;;;;;;5094904;28;20494;-72
2022/08/01 06:42:54;;;;;;;2.57;2.37;;;;;;;;;;5095490;28;20490;-72
2022/08/01 06:45:22;;;;;;;3.57;3.27;;;;;;;;;;5095222;28;20461;-72
2022/08/01 06:47:49;;;;;;;3.83;2.43;;;;;;;;;;5095716;28;20454;-72
2022/08/01 06:50:16;;;;;;;3.60;2.60;;;;;;;;;;5095669;28;20951;-72
2022/08/01 06:52:43;;;;;;;3.03;2.73;;;;;;;;;;5095482;28;20477;-72
2022/08/01 06:55:11;;;;;;;2.87;2.67;;;;;;;;;;5095288;28;20447;-72
2022/08/01 06:57:46;;;;;;;2.60;2.40;;;;;;;;;;5095166;28;20459;-72
2022/08/01 07:00:13;;;;;;;3.10;2.70;;;;;;;;;;5095336;28;20514;-72
2022/08/01 07:02:40;;;;;;;2.93;2.73;;;;;;;;;;5095550;28;20490;-72
2022/08/01 07:05:09;;;;;;;4.73;2.40;;;;;;;;;;5095095;28;20974;-72
2022/08/01 07:07:36;;;;;;;5.23;2.73;;;;;;;;;;5095182;28;20454;-72
2022/08/01 07:10:03;;;;;;;4.77;2.70;;;;;;;;;;5095174;28;20477;-72
2022/08/01 07:12:30;;;;;;;2.13;1.90;;;;;;;;;;5095210;28;20519;-72
2022/08/01 07:14:59;;;;;;;2.63;2.40;;;;;;;;;;5094961;28;20826;-72
2022/08/01 07:17:26;;;;;;;3.93;2.57;;;;;;;;;;5094957;28;20450;-72
2022/08/01 07:19:54;;;;;;;3.43;2.43;;;;;;;;;;5095136;28;20513;-72
2022/08/01 07:22:21;;;;;;;5.97;2.40;;;;;;;;;;5094671;28;20515;-72
2022/08/01 07:24:48;;;;;;;5.50;2.70;;;;;;;;;;5094828;28;20451;-72
2022/08/01 07:27:15;;;;;;;2.80;2.60;;;;;;;;;;5094708;28;20450;-72
2022/08/01 07:29:44;;;;;;;5.07;4.40;;;;;;;;;;5094728;28;20488;-72
2022/08/01 07:32:12;;;;;;;3.53;2.43;;;;;;;;;;5094828;28;21017;-72
2022/08/01 07:34:39;;;;;;;5.63;2.67;;;;;;;;;;5094060;28;20450;-72
2022/08/01 07:37:06;;;;;;;2.90;2.70;;;;;;;;;;5094562;28;20541;-72
2022/08/01 07:39:33;;;;;;;3.23;2.70;;;;;;;;;;5094121;28;20453;-72
2022/08/01 07:42:01;;;;;;;3.80;2.90;;;;;;;;;;5094513;28;20485;-72
2022/08/01 07:44:28;;;;;;;3.13;2.50;;;;;;;;;;5094267;28;20465;-72
2022/08/01 07:46:55;;;;;;;3.57;2.70;;;;;;;;;;5094670;28;20454;-72
2022/08/01 07:49:23;;;;;;;3.90;2.77;;;;;;;;;;5094397;28;20482;-72
2022/08/01 07:51:51;;;;;;;6.47;4.67;;;;;;;;;;5094200;28;20451;-72
2022/08/01 07:54:18;;;;;;;2.80;2.60;;;;;;;;;;5094259;28;20463;-72
2022/08/01 07:56:45;;;;;;;2.80;2.60;;;;;;;;;;5094398;28;20442;-72
2022/08/01 07:59:12;;;;;;;2.73;2.43;;;;;;;;;;5094244;28;20446;-72
2022/08/01 08:01:39;;;;;;;4.23;2.43;;;;;;;;;;5093994;28;20450;-72
2022/08/01 08:04:06;;;;;;;2.50;2.30;;;;;;;;;;5093851;28;20453;-72
2022/08/01 08:06:35;;;;;;;3.20;2.30;;;;;;;;;;5093968;28;20454;-72
2022/08/01 08:09:02;;;;;;;2.23;2.03;;;;;;;;;;5094045;28;20490;-72
2022/08/01 08:11:29;;;;;;;3.03;2.50;;;;;;;;;;5094069;28;20541;-72
2022/08/01 08:13:56;;;;;;;2.83;2.20;;;;;;;;;;5093826;28;20469;-72
2022/08/01 08:16:23;;;;;;;4.43;2.70;;;;;;;;;;5093819;28;20450;-72
2022/08/01 08:18:50;;;;;;;2.00;1.90;;;;;;;;;;5093852;28;20450;-72
2022/08/01 08:21:17;;;;;;;3.23;2.37;;;;;;;;;;5093885;28;20461;-72
2022/08/01 08:26:31;;;;;;;3.47;2.77;;;;;;;;;;5093742;28;20464;-72
2022/08/01 08:28:58;;;;;;;5.07;2.60;;;;;;;;;;5093564;28;20478;-72
2022/08/01 08:31:25;;;;;;;3.07;2.37;;;;;;;;;;5093726;28;20446;-72
2022/08/01 08:33:52;;;;;;;4.40;2.87;;;;;;;;;;5093391;28;20496;-72
2022/08/01 08:36:19;;;;;;;3.90;3.33;;;;;;;;;;5093527;28;20473;-72
2022/08/01 08:38:47;;;;;;;3.27;2.97;;;;;;;;;;5093651;28;20438;-72
2022/08/01 08:41:15;;;;;;;3.20;2.87;;;;;;;;;;5093228;28;20450;-72
2022/08/01 08:43:42;;;;;;;4.60;2.40;;;;;;;;;;5093158;28;20474;-71
2022/08/01 08:46:10;;;;;;;4.30;2.73;;;;;;;;;;5092544;28;20450;-71
2022/08/01 08:48:38;;;;;;;3.37;2.53;;;;;;;;;;5093304;28;20449;-72
2022/08/01 08:51:05;;;;;;;3.07;2.73;;;;;;;;;;5093593;28;20814;-72
2022/08/01 08:53:33;;;;;;;4.33;2.40;;;;;;;;;;5093018;28;20470;-72
2022/08/01 08:56:01;;;;;;;3.73;2.37;;;;;;;;;;5093382;28;20569;-72
2022/08/01 08:58:28;;;;;;;3.90;2.43;;;;;;;;;;5093147;28;20459;-72
2022/08/01 09:00:56;;;;;;;3.57;3.00;;;;;;;;;;5093462;28;20477;-72
2022/08/01 09:03:23;;;;;;;3.23;2.60;;;;;;;;;;5093047;28;20557;-72
2022/08/01 09:05:50;;;;;;;4.87;3.03;;;;;;;;;;5093229;28;20454;-72
2022/08/01 09:08:17;;;;;;;3.60;3.30;;;;;;;;;;5093085;28;20446;-72
2022/08/01 09:10:44;;;;;;;3.13;2.87;;;;;;;;;;5093121;28;20485;-72
2022/08/01 09:13:14;;;;;;;2.60;2.40;;;;;;;;;;5093080;28;21021;-72
2022/08/01 09:15:42;;;;;;;4.33;2.30;;;;;;;;;;5093089;28;20446;-72
2022/08/01 09:18:10;;;;;;;2.70;2.10;;;;;;;;;;5093047;28;20873;-72
2022/08/01 09:20:37;;;;;;;3.53;2.50;;;;;;;;;;5093194;28;20935;-72
2022/08/01 09:23:04;;;;;;;3.40;2.20;;;;;;;;;;5092907;28;20478;-72
2022/08/01 09:25:33;;;;;;;5.13;2.40;;;;;;;;;;5092692;28;20459;-72
2022/08/01 09:28:05;;;;;;;3.40;2.50;;;;;;;;;;5093056;28;20453;-72
2022/08/01 09:30:38;;;;;;;2.90;2.10;;;;;;;;;;5092932;28;20860;-72
2022/08/01 09:33:05;;;;;;;3.40;2.47;;;;;;;;;;5092961;28;20838;-72
2022/08/01 09:35:34;;;;;;;3.50;2.27;;;;;;;;;;5092674;28;20443;-72
2022/08/01 09:38:18;;;;;;;3.47;2.40;;;;;;;;;;5092881;28;20490;-72
2022/08/01 09:40:46;;;;;;;2.73;2.23;;;;;;;;;;5092783;28;20793;-72
2022/08/01 09:43:13;;;;;;;2.67;2.40;;;;;;;;;;5092743;28;20486;-72
2022/08/01 09:45:41;;;;;;;2.40;2.20;;;;;;;;;;5092869;28;20469;-72
2022/08/01 09:48:10;;;;;;;2.80;2.60;;;;;;;;;;5092943;28;20945;-72
2022/08/01 09:50:41;;;;;;;5.77;2.60;;;;;;;;;;5092766;28;20528;-72
2022/08/01 09:53:08;;;;;;;2.73;2.53;;;;;;;;;;5092920;28;20476;-72
2022/08/01 09:55:36;;;;;;;4.20;2.70;;;;;;;;;;5092657;28;20545;-72
2022/08/01 09:58:04;;;;;;;4.03;2.10;;;;;;;;;;5094512;28;20472;-72
2022/08/01 10:00:31;;;;;;;3.97;3.57;;;;;;;;;;5096590;28;21004;-73
2022/08/01 10:03:00;;;;;;;3.47;2.73;;;;;;;;;;5096367;28;20470;-72
2022/08/01 10:05:33;;;;;;;3.10;2.80;;;;;;;;;;5096384;28;20788;-73
2022/08/01 10:08:01;;;;;;;4.20;2.40;;;;;;;;;;5096556;28;20560;-73
2022/08/01 10:10:29;;;;;;;2.53;2.33;;;;;;;;;;5096286;28;20485;-72
2022/08/01 10:12:57;;;;;;;3.10;2.30;;;;;;;;;;5096381;28;20832;-72
2022/08/01 10:15:24;;;;;;;5.90;3.73;;;;;;;;;;5095960;28;20457;-72
2022/08/01 10:17:55;;;;;;;3.30;2.50;;;;;;;;;;5096198;28;20455;-72
2022/08/01 10:20:24;;;;;;;2.83;2.30;;;;;;;;;;5096317;28;20458;-72
2022/08/01 10:22:53;;;;;;;3.70;1.97;;;;;;;;;;5095981;28;20472;-72
2022/08/01 10:25:21;;;;;;;4.43;2.00;;;;;;;;;;5095874;28;20454;-72
2022/08/01 10:27:50;;;;;;;2.80;2.13;;;;;;;;;;5096103;28;21035;-72
2022/08/01 10:30:17;;;;;;;2.47;2.27;;;;;;;;;;5095832;28;21095;-72
2022/08/01 10:32:47;;;;;;;3.10;2.00;;;;;;;;;;5096068;28;20838;-72
2022/08/01 10:35:17;;;;;;;4.13;2.10;;;;;;;;;;5095581;28;20450;-72
2022/08/01 10:37:46;;;;;;;2.20;2.00;;;;;;;;;;5096048;28;20468;-72
2022/08/01 10:40:13;;;;;;;2.73;2.20;;;;;;;;;;5095080;28;20447;-72
2022/08/01 10:42:41;;;;;;;4.40;2.20;;;;;;;;;;5095581;28;20512;-72
2022/08/01 10:45:09;;;;;;;2.23;2.03;;;;;;;;;;5095643;28;20868;-72
2022/08/01 10:47:40;;;;;;;2.80;2.60;;;;;;;;;;5095762;28;20462;-72
2022/08/01 10:50:13;;;;;;;2.30;2.10;;;;;;;;;;5095670;28;20529;-72
2022/08/01 10:52:40;;;;;;;3.30;2.23;;;;;;;;;;5095635;28;20465;-72
2022/08/01 10:55:10;;;;;;;3.33;2.20;;;;;;;;;;5095302;28;20450;-72
2022/08/01 10:57:43;;;;;;;2.87;2.27;;;;;;;;;;5095399;28;20484;-72
2022/08/01 11:00:18;;;;;;;2.77;2.20;;;;;;;;;;5095526;28;20801;-72
2022/08/01 11:02:58;;;;;;;2.50;2.10;;;;;;;;;;5095436;28;20470;-72
2022/08/01 11:05:26;;;;;;;2.20;2.00;;;;;;;;;;5095081;28;20537;-72
2022/08/01 11:07:53;;;;;;;2.70;2.30;;;;;;;;;;5095511;28;20952;-73
2022/08/01 11:10:26;;;;;;;3.13;2.43;;;;;;;;;;5094270;28;21042;-73
2022/08/01 11:12:53;;;;;;;2.20;2.00;;;;;;;;;;5095243;28;20470;-72
2022/08/01 11:15:30;;;;;;;2.33;2.13;;;;;;;;;;5095077;28;20451;-72
2022/08/01 11:17:58;;;;;;;2.50;2.13;;;;;;;;;;5095173;28;20936;-72
2022/08/01 11:20:26;;;;;;;2.40;2.10;;;;;;;;;;5095071;28;20447;-72
2022/08/01 11:23:27;;;;;;;2.93;2.20;;;;;;;;;;5094810;28;20474;-72
2022/08/01 11:26:21;;;;;;;4.67;2.53;;;;;;;;;;5094976;28;20446;-72
2022/08/01 11:29:03;;;;;;;2.50;2.17;;;;;;;;;;5094942;28;20447;-72
2022/08/01 11:31:32;;;;;;;5.83;2.67;;;;;;;;;;5094510;28;20482;-72
2022/08/01 11:34:00;;;;;;;3.10;2.40;;;;;;;;;;5094509;28;20466;-72
2022/08/01 11:36:27;;;;;;;3.13;2.03;;;;;;;;;;5094689;28;20451;-73
2022/08/01 11:39:14;;;;;;;2.93;1.90;;;;;;;;;;5094681;28;20452;-73
2022/08/01 11:41:42;;;;;;;2.00;1.80;;;;;;;;;;5094578;28;20445;-72
2022/08/01 11:44:10;;;;;;;3.87;2.63;;;;;;;;;;5094263;28;20967;-73
2022/08/01 11:46:48;;;;;;;3.00;1.90;;;;;;;;;;5094732;28;20545;-72
2022/08/01 11:49:50;;;;;;;2.63;2.30;;;;;;;;;;5094378;28;20449;-72
2022/08/01 11:52:18;;;;;;;2.40;2.20;;;;;;;;;;5032104;28;20534;-73
2022/08/01 11:54:46;;;;;;;2.70;1.80;;;;;;;;;;5031820;28;20556;-72
2022/08/01 11:57:14;;;;;;;5.07;2.20;;;;;;;;;;5061125;28;20823;-72
2022/08/01 11:59:45;;;;;;;5.37;2.50;;;;;;;;;;5094269;28;20491;-72
2022/08/01 12:02:24;;;;;;;2.70;2.50;;;;;;;;;;5094067;28;20474;-72
2022/08/01 12:04:53;;;;;;;3.20;2.83;;;;;;;;;;5093937;28;20454;-72
2022/08/01 12:07:21;;;;;;;4.40;2.50;;;;;;;;;;5094102;28;20446;-72
2022/08/01 12:09:48;;;;;;;2.37;2.17;;;;;;;;;;5094143;28;20958;-72
2022/08/01 12:12:19;;;;;;;2.50;2.10;;;;;;;;;;5093843;28;20995;-72
2022/08/01 12:14:46;;;;;;;2.50;2.30;;;;;;;;;;5093852;28;20447;-72
2022/08/01 12:17:14;;;;;;;4.63;1.90;;;;;;;;;;5094189;28;20470;-72
2022/08/01 12:19:43;;;;;;;2.10;1.90;;;;;;;;;;5094004;28;20482;-72
2022/08/01 12:22:11;;;;;;;2.60;2.40;;;;;;;;;;5093767;28;20466;-72
2022/08/01 12:24:39;;;;;;;3.33;2.70;;;;;;;;;;5093685;28;20451;-72
2022/08/01 12:27:07;;;;;;;3.63;2.13;;;;;;;;;;5093879;28;20453;-72
2022/08/01 12:29:35;;;;;;;2.43;2.23;;;;;;;;;;5093659;28;20932;-72
2022/08/01 12:32:03;;;;;;;3.53;2.27;;;;;;;;;;5093860;28;20470;-72
2022/08/01 12:34:30;;;;;;;4.63;2.20;;;;;;;;;;5093078;28;20470;-72
2022/08/01 12:37:00;;;;;;;3.40;2.37;;;;;;;;;;5093541;28;20819;-73
2022/08/01 12:39:34;;;;;;;3.40;2.30;;;;;;;;;;5093205;28;20446;-72
2022/08/01 12:42:01;;;;;;;2.30;2.00;;;;;;;;;;5093678;28;20466;-72
2022/08/01 12:44:29;;;;;;;2.40;2.20;;;;;;;;;;5093120;28;20978;-72
2022/08/01 12:46:56;;;;;;;2.30;1.90;;;;;;;;;;5093527;28;20453;-72
2022/08/01 12:49:24;;;;;;;2.97;2.13;;;;;;;;;;5093262;28;20454;-72
2022/08/01 12:51:51;;;;;;;6.40;2.73;;;;;;;;;;5093643;28;20848;-72
2022/08/01 12:54:20;;;;;;;3.17;2.00;;;;;;;;;;5093265;28;20450;-72
2022/08/01 12:56:47;;;;;;;2.20;2.00;;;;;;;;;;5093382;28;20540;-72
2022/08/01 12:59:24;;;;;;;3.40;1.90;;;;;;;;;;5093202;28;20458;-72
2022/08/01 13:01:52;;;;;;;2.00;1.80;;;;;;;;;;5093163;28;20465;-72
2022/08/01 13:04:19;;;;;;;2.40;2.10;;;;;;;;;;5093046;28;20449;-72
2022/08/01 13:06:47;;;;;;;2.47;1.80;;;;;;;;;;5093405;28;20825;-72
2022/08/01 13:09:14;;;;;;;3.37;2.20;;;;;;;;;;5093049;28;20453;-72
2022/08/01 13:11:43;;;;;;;2.67;1.83;;;;;;;;;;5092925;28;20486;-72
2022/08/01 13:14:10;;;;;;;5.00;2.30;;;;;;;;;;5092793;28;20450;-72
2022/08/01 13:16:47;;;;;;;2.20;1.90;;;;;;;;;;5093141;28;20465;-72
2022/08/01 13:19:14;;;;;;;2.20;1.90;;;;;;;;;;5093076;28;20457;-72
2022/08/01 13:21:54;;;;;;;3.10;1.87;;;;;;;;;;5093193;28;20479;-72
2022/08/01 13:24:24;;;;;;;2.40;2.00;;;;;;;;;;5092815;28;20458;-72
2022/08/01 13:26:55;;;;;;;2.40;2.17;;;;;;;;;;5093068;28;20453;-72
2022/08/01 13:29:23;;;;;;;3.67;1.67;;;;;;;;;;5093052;28;20454;-72
2022/08/01 13:31:50;;;;;;;2.10;1.83;;;;;;;;;;5093090;28;20519;-72
2022/08/01 13:34:18;;;;;;;3.47;2.33;;;;;;;;;;5096632;28;20451;-72
2022/08/01 13:36:46;;;;;;;2.67;2.43;;;;;;;;;;5096959;28;20447;-72
2022/08/01 13:41:59;;;;;;;7.70;2.40;;;;;;;;;;5097088;28;20830;-72
2022/08/01 13:44:26;;;;;;;8.80;2.07;;;;;;;;;;5096592;28;20462;-72
2022/08/01 13:46:53;;;;;;;4.13;2.43;;;;;;;;;;5096880;28;20451;-72
2022/08/01 13:49:20;;;;;;;5.47;1.67;;;;;;;;;;5096706;28;20948;-72
2022/08/01 13:51:49;;;;;;;5.50;1.97;;;;;;;;;;5096628;28;20490;-72
2022/08/01 13:54:16;;;;;;;4.07;2.30;;;;;;;;;;5096405;28;20473;-72
2022/08/01 13:56:44;;;;;;;4.83;2.07;;;;;;;;;;5096610;28;20446;-72
2022/08/01 13:59:12;;;;;;;2.60;1.87;;;;;;;;;;5096719;28;20454;-72
2022/08/01 14:07:46;;;;;;;2.30;1.67;;;;;;;;;;5075572;28;20796;-73
2022/08/01 14:10:13;;;;;;;6.07;2.40;;;;;;;;;;5076206;28;20577;-73
2022/08/01 14:12:41;;;;;;;3.40;2.00;;;;;;;;;;5072143;28;20459;-72
2022/08/01 14:15:10;;;;;;;4.00;1.80;;;;;;;;;;5090354;28;20454;-72
2022/08/01 14:17:37;;;;;;;2.03;1.83;;;;;;;;;;5094408;28;20454;-72
2022/08/01 14:20:05;;;;;;;2.43;2.23;;;;;;;;;;5094681;28;20815;-72
2022/08/01 14:22:32;;;;;;;5.73;2.17;;;;;;;;;;5094386;28;20487;-72
2022/08/01 14:24:59;;;;;;;3.20;1.80;;;;;;;;;;5094606;28;20816;-72
2022/08/01 14:27:29;;;;;;;1.90;1.60;;;;;;;;;;5094745;28;20461;-72
2022/08/01 14:29:57;;;;;;;2.17;1.73;;;;;;;;;;5094946;28;20849;-72
2022/08/01 14:32:25;;;;;;;1.77;1.67;;;;;;;;;;5094369;28;20498;-72
2022/08/01 14:34:52;;;;;;;2.37;1.77;;;;;;;;;;5094444;28;20454;-72
2022/08/01 14:37:19;;;;;;;2.30;1.97;;;;;;;;;;5094093;28;20454;-72
2022/08/01 14:39:46;;;;;;;2.43;1.80;;;;;;;;;;5093928;28;20450;-72
2022/08/01 14:42:13;;;;;;;3.47;2.10;;;;;;;;;;5094191;28;20466;-72
2022/08/01 14:44:41;;;;;;;1.80;1.70;;;;;;;;;;5092618;28;20491;-72
2022/08/01 14:47:08;;;;;;;2.10;1.50;;;;;;;;;;5094218;28;20473;-72
2022/08/01 14:49:36;;;;;;;6.43;2.20;;;;;;;;;;5094076;28;20446;-72
2022/08/01 14:52:03;;;;;;;10.17;6.50;;;;;;;;;;5094003;28;20509;-72
2022/08/01 14:54:30;;;;;;;6.87;2.60;;;;;;;;;;5093886;28;20462;-72
2022/08/01 14:56:58;;;;;;;3.73;1.97;;;;;;;;;;5094244;28;20447;-72
2022/08/01 14:59:25;;;;;;;3.70;1.93;;;;;;;;;;5093637;28;20463;-72
2022/08/01 15:01:52;;;;;;;2.83;2.03;;;;;;;;;;5093986;28;20450;-72
2022/08/01 15:04:19;;;;;;;7.10;2.30;;;;;;;;;;5094191;28;20977;-72